Knight Air

Knight Air knights of the virtual airways



 METAR AND TAF INFORMATION
METAR FOR EGNS
ADDS - METARS form results

(1710 UTC 18 October 2019)
Data provider http://aviationweather.gov/metar/data/
 
METAR text: EGNS 181650Z 11007KT 9999 -RA SCT020 11/08 Q0991 TEMPO 5000 BKN014
Conditions at: EGNS (ISLE OF MAN/RONA, GB) observed 1650 UTC 18 October 2019
Temperature: 11.0°C (52°F)
Dewpoint: 8.0°C (46°F) [RH = 82%]
Pressure (altimeter): 29.26 inches Hg (991.0 mb)
Winds: from the ESE (110 degrees) at 8 MPH (7 knots; 3.6 m/s)
Visibility: 6 or more miles (10+ km)
Ceiling: at least 12,000 feet AGL
Clouds: scattered clouds at 2000 feet AGL
Weather: -RA  (light rain)

METAR text: EGNS 181620Z 11007KT 9999 SCT020 12/09 Q0991 NOSIG
Conditions at: EGNS (ISLE OF MAN/RONA, GB) observed 1620 UTC 18 October 2019
Temperature: 12.0°C (54°F)
Dewpoint: 9.0°C (48°F) [RH = 82%]
Pressure (altimeter): 29.26 inches Hg (991.0 mb)
Winds: from the ESE (110 degrees) at 8 MPH (7 knots; 3.6 m/s)
Visibility: 6 or more miles (10+ km)
Ceiling: at least 12,000 feet AGL
Clouds: scattered clouds at 2000 feet AGL
Weather: no significant weather observed at this time

Forecast for: EGNS (ISLE OF MAN/RONA, GB)
Text: TAF EGNS 181700Z 1818/1821 VRB06KT 9999 SCT020
Forecast period: 1800 to 2100 UTC 18 October 2019
Forecast type: FROM: standard forecast or significant change
Winds: variable direction winds at 7 MPH (6 knots; 3.1 m/s)
Visibility: 6 or more miles 10+ km)
Ceiling: at least 12,000 feet AGL
Clouds: scattered clouds at 2000 feet AGL
Weather: no significant weather forecast for this period
Text: TEMPO 1818/1821 5000 SHRA RA BKN014CB
Forecast period: 1800 to 2100 UTC 18 October 2019
Forecast type: TEMPORARY: The following changes expected for less than half the time period
Visibility: 3 miles (5 km)
Ceiling: 1400 feet AGL
Clouds: broken clouds at 1400 feet AGL
Weather: SHRA RA  (rain showers, moderate rain)

 AIRPORT MAP

 RUNWAY INFORMATION
Runway 03 Runway length 3934 ft Runway width 151 ft
Runway elevation 23 ft Runway displaced threshold 312 ft Runway heading 28
Runway 21 Runway length 3934 ft Runway width 151 ft
Runway elevation 52 ft Runway displaced threshold 0 ft Runway heading 208
Runway 08 Runway length 5751 ft Runway width 151 ft
Runway elevation 29 ft Runway displaced threshold 951 ft Runway heading 78
Runway 26 Runway length 5751 ft Runway width 151 ft
Runway elevation 32 ft Runway displaced threshold 459 ft Runway heading 258
Runway 17 Runway length 2963 ft Runway width 89 ft
Runway elevation 0 ft Runway displaced threshold 0 ft Runway heading 175
Runway 35 Runway length 2963 ft Runway width 89 ft
Runway elevation 18 ft Runway displaced threshold 0 ft Runway heading 355

 AIRPORT FREQUENCIES
Type APP Name RONALDSWAY Frequency 120.85 MHZ
Type ATIS Name ATIS Frequency 123.875 MHZ
Type TWR Name RONALDSWAY Frequency 118.9 MHZ

 AIRPORT NEAR NAVIGATION AIDS
Type NDB Name Carnane Frequency 367 KHZ
Type VOR-DME Name Isle Of Man Frequency 112200 KHZ